createdAt,value
2019-05-23T00:02:47.315Z,10.70
2019-05-23T00:05:35.130Z,10.70
2019-05-23T00:08:08.894Z,10.70
2019-05-23T00:10:40.741Z,10.70
2019-05-23T00:13:24.445Z,10.70
2019-05-23T00:15:54.750Z,10.70
2019-05-23T00:18:25.672Z,10.80
2019-05-23T00:20:55.598Z,10.80
2019-05-23T00:23:25.897Z,10.80
2019-05-23T00:25:55.466Z,10.70
2019-05-23T00:28:24.755Z,10.70
2019-05-23T00:31:04.813Z,10.70
2019-05-23T00:33:35.012Z,10.70
2019-05-23T00:36:04.378Z,10.70
2019-05-23T00:38:35.174Z,10.70
2019-05-23T00:41:04.455Z,10.60
2019-05-23T00:43:35.037Z,10.60
2019-05-23T00:46:04.258Z,10.60
2019-05-23T00:48:34.827Z,10.60
2019-05-23T00:51:05.121Z,10.60
2019-05-23T00:53:34.993Z,10.60
2019-05-23T00:56:04.586Z,10.60
2019-05-23T00:58:34.557Z,10.60
2019-05-23T01:01:04.525Z,10.60
2019-05-23T01:03:34.213Z,10.50
2019-05-23T01:06:03.381Z,10.50
2019-05-23T01:08:33.294Z,10.50
2019-05-23T01:11:02.543Z,10.50
2019-05-23T01:13:31.713Z,10.50
2019-05-23T01:16:00.901Z,10.40
2019-05-23T01:18:30.009Z,10.40
2019-05-23T01:21:24.799Z,10.30
2019-05-23T01:24:02.802Z,10.30
2019-05-23T01:26:32.485Z,10.30
2019-05-23T01:29:02.062Z,10.20
2019-05-23T01:31:35.750Z,10.20
2019-05-23T01:34:06.680Z,10.20
2019-05-23T01:36:37.060Z,10.10
2019-05-23T01:39:12.363Z,10.10
2019-05-23T01:41:42.334Z,10.10
2019-05-23T01:44:11.813Z,10.00
2019-05-23T01:46:41.313Z,10.00
2019-05-23T01:49:12.111Z,10.00
2019-05-23T01:51:41.702Z,10.00
2019-05-23T01:54:11.613Z,9.90
2019-05-23T01:56:41.202Z,9.90
2019-05-23T01:59:10.886Z,9.90
2019-05-23T02:01:41.731Z,9.90
2019-05-23T02:04:10.909Z,9.80
2019-05-23T02:06:40.061Z,9.80
2019-05-23T02:09:11.541Z,9.80
2019-05-23T02:11:41.241Z,9.70
2019-05-23T02:14:10.451Z,9.70
2019-05-23T02:16:41.155Z,9.70
2019-05-23T02:19:13.656Z,9.60
2019-05-23T02:21:43.148Z,9.70
2019-05-23T02:24:13.426Z,9.70
2019-05-23T02:26:43.306Z,9.70
2019-05-23T02:29:12.461Z,9.60
2019-05-23T02:31:41.873Z,9.60
2019-05-23T02:34:11.542Z,9.60
2019-05-23T02:36:41.160Z,9.60
2019-05-23T02:39:29.277Z,9.50
2019-05-23T02:42:23.612Z,9.50
2019-05-23T02:44:53.581Z,9.40
2019-05-23T02:47:27.218Z,9.40
2019-05-23T02:49:57.535Z,9.40
2019-05-23T02:52:41.297Z,9.30
2019-05-23T02:55:17.102Z,9.30
2019-05-23T02:57:47.055Z,9.20
2019-05-23T03:00:53.396Z,9.20
2019-05-23T03:03:09.402Z,9.20
2019-05-23T03:05:38.690Z,9.20
2019-05-23T03:08:10.157Z,9.10
2019-05-23T03:11:02.140Z,9.10
2019-05-23T03:13:33.090Z,9.10
2019-05-23T03:16:04.213Z,9.00
2019-05-23T03:18:38.831Z,9.00
2019-05-23T03:21:09.217Z,9.00
2019-05-23T03:23:38.579Z,9.00
2019-05-23T03:27:07.934Z,9.00
2019-05-23T03:29:37.645Z,9.00
2019-05-23T03:32:40.755Z,9.00
2019-05-23T03:35:19.317Z,9.00
2019-05-23T03:37:50.112Z,9.00
2019-05-23T03:40:19.973Z,9.00
2019-05-23T03:42:49.875Z,9.00
2019-05-23T03:45:22.547Z,9.00
2019-05-23T03:47:53.072Z,9.00
2019-05-23T03:50:22.994Z,9.00
2019-05-23T03:52:52.302Z,9.00
2019-05-23T03:55:23.586Z,9.00
2019-05-23T03:57:54.930Z,9.10
2019-05-23T04:00:26.774Z,9.10
2019-05-23T04:02:57.287Z,9.10
2019-05-23T04:05:27.449Z,9.10
2019-05-23T04:07:58.593Z,9.10
2019-05-23T04:10:27.694Z,9.10
2019-05-23T04:12:56.866Z,9.10
2019-05-23T04:15:27.001Z,9.20
2019-05-23T04:17:56.185Z,9.20
2019-05-23T04:20:25.662Z,9.20
2019-05-23T04:22:54.917Z,9.20
2019-05-23T04:25:24.114Z,9.30
2019-05-23T04:27:55.654Z,9.30
2019-05-23T04:30:24.727Z,9.30
2019-05-23T04:32:54.301Z,9.30
2019-05-23T04:35:23.486Z,9.30
2019-05-23T04:37:53.544Z,9.30
2019-05-23T04:40:23.724Z,9.40
2019-05-23T04:42:53.195Z,9.40
2019-05-23T04:45:23.282Z,9.40
2019-05-23T04:47:52.442Z,9.50
2019-05-23T04:50:21.912Z,9.50
2019-05-23T04:52:52.058Z,9.60
2019-05-23T04:55:21.429Z,9.60
2019-05-23T04:57:52.200Z,9.60
2019-05-23T05:00:21.386Z,9.60
2019-05-23T05:02:50.837Z,9.70
2019-05-23T05:05:20.482Z,9.80
2019-05-23T05:07:49.995Z,9.80
2019-05-23T05:10:22.362Z,9.90
2019-05-23T05:12:52.366Z,9.90
2019-05-23T05:15:22.246Z,10.00
2019-05-23T05:17:51.458Z,10.00
2019-05-23T05:20:20.569Z,10.00
2019-05-23T05:22:51.397Z,10.10
2019-05-23T05:25:20.725Z,10.20
2019-05-23T05:27:50.012Z,10.20
2019-05-23T05:30:19.463Z,10.20
2019-05-23T05:32:48.626Z,10.30
2019-05-23T05:35:18.050Z,10.40
2019-05-23T05:37:47.218Z,10.50
2019-05-23T05:40:17.526Z,10.70
2019-05-23T05:42:47.654Z,10.70
2019-05-23T05:45:17.194Z,10.80
2019-05-23T05:47:46.365Z,11.00
2019-05-23T05:50:15.865Z,11.10
2019-05-23T05:52:45.078Z,11.10
2019-05-23T05:55:14.282Z,11.10
2019-05-23T05:57:43.526Z,11.10
2019-05-23T06:00:30.564Z,11.20
2019-05-23T06:03:05.271Z,11.30
2019-05-23T06:05:42.681Z,11.40
2019-05-23T06:08:12.562Z,11.40
2019-05-23T06:10:41.756Z,11.50
2019-05-23T06:13:10.951Z,11.60
2019-05-23T06:15:40.437Z,11.60
2019-05-23T06:18:09.646Z,11.50
2019-05-23T06:20:41.147Z,11.40
2019-05-23T06:23:11.206Z,11.50
2019-05-23T06:25:40.438Z,11.50
2019-05-23T06:28:09.906Z,11.60
2019-05-23T06:30:39.690Z,11.60
2019-05-23T06:33:22.680Z,11.50
2019-05-23T06:35:40.129Z,11.40
2019-05-23T06:38:10.313Z,11.40
2019-05-23T06:40:39.662Z,11.40
2019-05-23T06:43:09.873Z,11.50
2019-05-23T06:45:40.669Z,11.60
2019-05-23T06:48:10.404Z,11.70
2019-05-23T06:50:39.591Z,11.80
2019-05-23T06:53:08.807Z,11.90
2019-05-23T06:55:37.967Z,11.90
2019-05-23T06:58:07.887Z,11.80
2019-05-23T07:00:37.104Z,11.90
2019-05-23T07:03:06.338Z,12.00
2019-05-23T07:05:36.925Z,11.90
2019-05-23T07:08:08.448Z,11.80
2019-05-23T07:10:37.621Z,11.90
2019-05-23T07:13:06.825Z,12.00
2019-05-23T07:15:36.025Z,12.20
2019-05-23T07:18:05.593Z,12.10
2019-05-23T07:20:34.870Z,12.20
2019-05-23T07:23:03.969Z,12.20
2019-05-23T07:25:33.529Z,12.20
2019-05-23T07:28:02.657Z,12.30
2019-05-23T07:30:31.840Z,12.30
2019-05-23T07:33:01.019Z,12.40
2019-05-23T07:35:30.180Z,12.50
2019-05-23T07:37:59.400Z,12.50
2019-05-23T07:40:29.132Z,12.60
2019-05-23T07:42:58.897Z,12.70
2019-05-23T07:45:39.719Z,12.90
2019-05-23T07:48:08.350Z,13.00
2019-05-23T07:50:37.630Z,13.00
2019-05-23T07:53:07.605Z,13.10
2019-05-23T07:55:39.801Z,13.10
2019-05-23T07:58:12.908Z,13.30
2019-05-23T08:01:01.192Z,13.50
2019-05-23T08:03:30.945Z,13.70
2019-05-23T08:06:00.237Z,13.50
2019-05-23T08:08:29.556Z,13.50
2019-05-23T08:10:58.725Z,13.60
2019-05-23T08:13:28.606Z,13.90
2019-05-23T08:15:57.925Z,14.00
2019-05-23T08:18:27.308Z,13.90
2019-05-23T08:20:56.653Z,14.00
2019-05-23T08:23:25.833Z,14.10
2019-05-23T08:25:55.437Z,14.20
2019-05-23T08:28:24.757Z,14.30
2019-05-23T08:30:54.948Z,14.50
2019-05-23T08:33:24.099Z,14.40
2019-05-23T08:35:54.833Z,14.60
2019-05-23T08:38:24.002Z,14.60
2019-05-23T08:40:53.986Z,14.50
2019-05-23T08:43:23.139Z,14.50
2019-05-23T08:45:52.334Z,14.60
2019-05-23T08:48:21.906Z,14.30
2019-05-23T08:50:51.717Z,14.60
2019-05-23T08:53:21.362Z,14.60
2019-05-23T08:55:50.598Z,14.50
2019-05-23T08:58:20.682Z,14.70
2019-05-23T09:00:50.192Z,14.80
2019-05-23T09:03:19.754Z,15.20
2019-05-23T09:05:49.745Z,15.10
2019-05-23T09:08:19.984Z,15.20
2019-05-23T09:10:50.731Z,15.50
2019-05-23T09:13:20.678Z,15.60
2019-05-23T09:15:52.905Z,15.80
2019-05-23T09:18:20.939Z,16.30
2019-05-23T09:20:50.120Z,16.40
2019-05-23T09:23:19.794Z,16.20
2019-05-23T09:25:48.960Z,16.20
2019-05-23T09:28:18.987Z,16.30
2019-05-23T09:30:48.271Z,16.70
2019-05-23T09:33:17.537Z,16.60
2019-05-23T09:35:46.911Z,16.70
2019-05-23T09:38:16.522Z,16.30
2019-05-23T09:40:45.949Z,16.50
2019-05-23T09:43:15.147Z,16.90
2019-05-23T09:45:44.345Z,16.90
2019-05-23T09:48:13.504Z,17.00
2019-05-23T09:50:42.955Z,17.00
2019-05-23T09:53:12.129Z,17.20
2019-05-23T09:55:41.213Z,17.30
2019-05-23T09:58:10.610Z,17.60
2019-05-23T10:00:41.350Z,17.80
2019-05-23T10:03:10.532Z,17.50
2019-05-23T10:05:43.140Z,17.80
2019-05-23T10:08:10.557Z,17.60
2019-05-23T10:10:39.833Z,18.00
2019-05-23T10:13:09.002Z,17.90
2019-05-23T10:16:06.224Z,18.00
2019-05-23T10:18:35.381Z,17.90
2019-05-23T10:21:04.873Z,18.20
2019-05-23T10:23:34.539Z,18.10
2019-05-23T10:26:04.120Z,18.30
2019-05-23T10:28:33.305Z,18.60
2019-05-23T10:31:02.907Z,18.70
2019-05-23T10:33:32.081Z,18.90
2019-05-23T10:36:01.451Z,18.50
2019-05-23T10:38:30.828Z,18.30
2019-05-23T10:41:00.096Z,18.40
2019-05-23T10:43:29.258Z,18.60
2019-05-23T10:45:58.430Z,19.10
2019-05-23T10:48:27.930Z,18.90
2019-05-23T10:50:57.167Z,19.10
2019-05-23T10:53:26.358Z,19.70
2019-05-23T10:55:55.528Z,20.30
2019-05-23T10:58:24.686Z,20.20
2019-05-23T11:00:53.856Z,20.50
2019-05-23T11:03:23.275Z,20.20
2019-05-23T11:05:52.565Z,20.60
2019-05-23T11:08:27.566Z,20.70
2019-05-23T11:10:52.569Z,21.00
2019-05-23T11:13:21.795Z,20.60
2019-05-23T11:15:50.966Z,20.50
2019-05-23T11:18:20.247Z,20.40
2019-05-23T11:20:49.413Z,20.30
2019-05-23T11:23:23.741Z,20.20
2019-05-23T11:25:53.165Z,19.90
2019-05-23T11:28:22.950Z,20.30
2019-05-23T11:30:53.718Z,20.60
2019-05-23T11:33:26.154Z,20.50
2019-05-23T11:35:55.519Z,20.50
2019-05-23T11:38:25.022Z,20.50
2019-05-23T11:40:54.213Z,20.40
2019-05-23T11:43:23.390Z,20.70
2019-05-23T11:46:04.406Z,20.90
2019-05-23T11:48:34.776Z,21.20
2019-05-23T11:51:03.947Z,21.40
2019-05-23T11:53:34.068Z,21.80
2019-05-23T11:56:03.355Z,21.30
2019-05-23T11:58:32.984Z,21.40
2019-05-23T12:01:32.377Z,21.80
2019-05-23T12:04:12.302Z,21.80
2019-05-23T12:06:59.312Z,22.00
2019-05-23T12:09:30.073Z,22.00
2019-05-23T12:11:59.261Z,22.20
2019-05-23T12:14:28.440Z,22.30
2019-05-23T12:16:57.901Z,22.20
2019-05-23T12:19:27.778Z,22.40
2019-05-23T12:21:57.123Z,22.60
2019-05-23T12:24:26.822Z,22.60
2019-05-23T12:26:55.986Z,22.70
2019-05-23T12:29:25.097Z,22.40
2019-05-23T12:31:54.357Z,22.20
2019-05-23T12:34:23.641Z,22.30
2019-05-23T12:36:52.903Z,22.40
2019-05-23T12:39:22.068Z,22.20
2019-05-23T12:41:51.242Z,22.40
2019-05-23T12:44:20.393Z,22.40
2019-05-23T12:46:49.600Z,21.80
2019-05-23T12:49:27.255Z,21.90
2019-05-23T12:51:57.329Z,22.00
2019-05-23T12:54:27.043Z,22.20
2019-05-23T12:56:57.218Z,22.30
2019-05-23T12:59:26.753Z,22.60
2019-05-23T13:01:57.390Z,23.20
2019-05-23T13:04:27.289Z,23.00
2019-05-23T13:06:56.469Z,23.40
2019-05-23T13:09:25.630Z,23.40
2019-05-23T13:11:54.809Z,23.20
2019-05-23T13:14:24.179Z,23.00
2019-05-23T13:16:53.377Z,22.00
2019-05-23T13:19:22.577Z,22.10
2019-05-23T13:21:51.737Z,22.10
2019-05-23T13:24:21.056Z,22.20
2019-05-23T13:26:50.201Z,22.60
2019-05-23T13:29:19.630Z,22.40
2019-05-23T13:31:48.852Z,22.70
2019-05-23T13:34:18.286Z,22.00
2019-05-23T13:36:47.602Z,21.80
2019-05-23T13:39:18.153Z,21.60
2019-05-23T13:41:47.284Z,21.80
2019-05-23T13:44:32.584Z,21.90
2019-05-23T13:46:47.267Z,21.90
2019-05-23T13:49:17.313Z,22.10
2019-05-23T13:51:47.087Z,22.20
2019-05-23T13:54:16.259Z,22.00
2019-05-23T13:56:47.687Z,22.00
2019-05-23T13:59:22.529Z,21.70
2019-05-23T14:01:51.542Z,21.30
2019-05-23T14:04:26.871Z,21.50
2019-05-23T14:06:56.061Z,20.80
2019-05-23T14:09:28.729Z,21.30
2019-05-23T14:12:20.185Z,20.90
2019-05-23T14:14:28.750Z,21.00
2019-05-23T14:17:15.775Z,21.20
2019-05-23T14:19:44.950Z,21.60
2019-05-23T14:22:17.346Z,21.40
2019-05-23T14:24:46.465Z,21.50
2019-05-23T14:27:28.615Z,21.20
2019-05-23T14:30:09.231Z,20.90
2019-05-23T14:32:43.031Z,20.80
2019-05-23T14:35:13.945Z,20.70
2019-05-23T14:37:45.859Z,20.60
2019-05-23T14:40:17.746Z,20.70
2019-05-23T14:42:55.589Z,21.10
2019-05-23T14:45:40.710Z,21.20
2019-05-23T14:48:16.389Z,21.30
2019-05-23T14:50:54.505Z,21.30
2019-05-23T14:53:24.856Z,21.10
2019-05-23T14:55:55.586Z,21.20
2019-05-23T14:58:24.796Z,21.20
2019-05-23T15:01:03.171Z,21.10
2019-05-23T15:03:35.598Z,21.20
2019-05-23T15:06:03.213Z,21.10
2019-05-23T15:08:49.403Z,21.10
2019-05-23T15:11:03.518Z,21.00
2019-05-23T15:13:32.674Z,20.80
2019-05-23T15:16:01.858Z,20.40
2019-05-23T15:18:31.276Z,20.10
2019-05-23T15:21:00.510Z,20.00
2019-05-23T15:23:29.675Z,20.00
2019-05-23T15:25:58.837Z,19.90
2019-05-23T15:28:28.256Z,20.00
2019-05-23T15:30:57.400Z,20.00
2019-05-23T15:33:26.637Z,20.10
2019-05-23T15:35:56.493Z,20.20
2019-05-23T15:38:25.661Z,19.90
2019-05-23T15:40:54.884Z,20.00
2019-05-23T15:43:24.045Z,20.10
2019-05-23T15:45:53.221Z,20.00
2019-05-23T15:48:22.502Z,20.10
2019-05-23T15:50:52.671Z,20.00
2019-05-23T15:53:31.472Z,19.80
2019-05-23T15:56:26.917Z,19.80
2019-05-23T15:59:03.480Z,19.80
2019-05-23T16:01:41.967Z,19.70
2019-05-23T16:04:13.231Z,19.60
2019-05-23T16:06:42.442Z,19.50
2019-05-23T16:09:27.867Z,19.60
2019-05-23T16:11:43.692Z,19.60
2019-05-23T16:14:13.442Z,19.60
2019-05-23T16:16:43.354Z,19.50
2019-05-23T16:19:12.518Z,19.60
2019-05-23T16:21:42.258Z,19.70
2019-05-23T16:24:11.616Z,19.50
2019-05-23T16:26:40.934Z,19.40
2019-05-23T16:29:12.981Z,19.50
2019-05-23T16:31:42.470Z,19.60
2019-05-23T16:34:11.715Z,19.50
2019-05-23T16:36:40.897Z,19.40
2019-05-23T16:39:10.873Z,19.30
2019-05-23T16:41:40.062Z,19.40
2019-05-23T16:44:09.218Z,19.20
2019-05-23T16:46:38.389Z,19.00
2019-05-23T16:49:07.616Z,18.80
2019-05-23T16:51:36.783Z,18.80
2019-05-23T16:54:06.262Z,18.70
2019-05-23T16:56:42.900Z,18.50
2019-05-23T16:59:29.541Z,18.30
2019-05-23T17:02:16.541Z,18.20
2019-05-23T17:05:09.660Z,18.00
2019-05-23T17:07:54.861Z,18.00
2019-05-23T17:10:35.476Z,17.90
2019-05-23T17:13:09.365Z,17.90
2019-05-23T17:16:09.640Z,17.80
2019-05-23T17:18:47.901Z,17.90
2019-05-23T17:21:26.898Z,17.90
2019-05-23T17:24:01.466Z,17.90
2019-05-23T17:26:35.389Z,17.90
2019-05-23T17:29:07.819Z,17.90
2019-05-23T17:31:38.970Z,18.00
2019-05-23T17:34:08.185Z,17.90
2019-05-23T17:36:37.366Z,17.80
2019-05-23T17:39:08.779Z,17.90
2019-05-23T17:41:37.956Z,18.00
2019-05-23T17:44:07.160Z,17.80
2019-05-23T17:46:36.329Z,17.70
2019-05-23T17:49:05.446Z,17.70
2019-05-23T17:51:34.625Z,17.60
2019-05-23T17:54:03.995Z,17.60
2019-05-23T17:56:33.102Z,17.60
2019-05-23T17:59:02.327Z,17.50
2019-05-23T18:01:32.405Z,17.40
2019-05-23T18:04:01.617Z,17.50
2019-05-23T18:06:31.625Z,17.40
2019-05-23T18:09:01.218Z,17.30
2019-05-23T18:11:30.896Z,17.30
2019-05-23T18:14:00.054Z,17.20
2019-05-23T18:16:30.226Z,17.20
2019-05-23T18:18:59.417Z,17.20
2019-05-23T18:21:28.585Z,17.20
2019-05-23T18:23:59.358Z,17.10
2019-05-23T18:26:28.611Z,17.10
2019-05-23T18:28:58.118Z,17.20
2019-05-23T18:31:29.574Z,17.00
2019-05-23T18:33:59.447Z,17.00
2019-05-23T18:36:28.630Z,17.10
2019-05-23T18:38:57.960Z,17.00
2019-05-23T18:41:27.526Z,16.90
2019-05-23T18:43:56.737Z,16.80
2019-05-23T18:46:30.687Z,16.80
2019-05-23T18:49:01.739Z,16.70
2019-05-23T18:51:32.297Z,16.60
2019-05-23T18:54:02.105Z,16.60
2019-05-23T18:56:31.285Z,16.60
2019-05-23T18:59:00.797Z,16.50
2019-05-23T19:01:30.329Z,16.60
2019-05-23T19:03:59.991Z,16.60
2019-05-23T19:06:29.435Z,16.50
2019-05-23T19:08:58.553Z,16.40
2019-05-23T19:11:27.734Z,16.40
2019-05-23T19:13:57.037Z,16.40
2019-05-23T19:16:26.541Z,16.30
2019-05-23T19:18:55.702Z,16.40
2019-05-23T19:21:26.591Z,16.40
2019-05-23T19:23:55.866Z,16.40
2019-05-23T19:26:25.198Z,16.30
2019-05-23T19:28:54.879Z,16.30
2019-05-23T19:31:24.418Z,16.30
2019-05-23T19:33:56.873Z,16.20
2019-05-23T19:36:26.373Z,16.30
2019-05-23T19:38:55.535Z,16.30
2019-05-23T19:41:37.034Z,16.30
2019-05-23T19:43:55.951Z,16.20
2019-05-23T19:46:25.133Z,16.10
2019-05-23T19:48:54.480Z,15.90
2019-05-23T19:51:23.651Z,15.80
2019-05-23T19:53:53.369Z,15.70
2019-05-23T19:56:22.542Z,15.60
2019-05-23T19:58:51.737Z,15.60
2019-05-23T20:01:20.918Z,15.50
2019-05-23T20:03:50.085Z,15.50
2019-05-23T20:06:19.906Z,15.50
2019-05-23T20:08:49.491Z,15.50
2019-05-23T20:11:19.121Z,15.40
2019-05-23T20:13:48.245Z,15.30
2019-05-23T20:16:17.598Z,15.30
2019-05-23T20:18:49.878Z,15.30
2019-05-23T20:21:23.037Z,15.20
2019-05-23T20:23:52.223Z,15.20
2019-05-23T20:26:21.393Z,15.10
2019-05-23T20:28:50.553Z,15.10
2019-05-23T20:31:19.793Z,15.10
2019-05-23T20:33:53.806Z,14.90
2019-05-23T20:36:22.975Z,14.80
2019-05-23T20:38:53.594Z,14.70
2019-05-23T20:41:23.866Z,14.60
2019-05-23T20:43:53.791Z,14.60
2019-05-23T20:46:22.957Z,14.50
2019-05-23T20:48:52.209Z,14.40
2019-05-23T20:51:21.386Z,14.30
2019-05-23T20:53:50.930Z,14.40
2019-05-23T20:56:20.134Z,14.30
2019-05-23T20:58:49.273Z,14.30
2019-05-23T21:01:23.305Z,14.30
2019-05-23T21:03:53.785Z,14.20
2019-05-23T21:06:22.923Z,14.20
2019-05-23T21:08:52.057Z,14.20
2019-05-23T21:11:22.301Z,14.20
2019-05-23T21:13:51.506Z,14.10
2019-05-23T21:16:20.673Z,14.10
2019-05-23T21:18:50.372Z,14.10
2019-05-23T21:21:19.969Z,13.90
2019-05-23T21:23:49.241Z,13.80
2019-05-23T21:26:18.723Z,13.80
2019-05-23T21:28:47.971Z,13.80
2019-05-23T21:31:22.846Z,13.80
2019-05-23T21:33:52.009Z,13.70
2019-05-23T21:36:21.174Z,13.60
2019-05-23T21:38:50.372Z,13.60
2019-05-23T21:41:19.701Z,13.50
2019-05-23T21:43:50.256Z,13.50
2019-05-23T21:46:19.366Z,13.50
2019-05-23T21:48:48.525Z,13.40
2019-05-23T21:51:17.637Z,13.50
2019-05-23T21:53:46.819Z,13.50
2019-05-23T21:56:16.111Z,13.50
2019-05-23T21:58:45.256Z,13.50
2019-05-23T22:01:36.225Z,13.50
2019-05-23T22:04:24.599Z,13.50
2019-05-23T22:06:56.670Z,13.50
2019-05-23T22:09:25.847Z,13.60
2019-05-23T22:11:55.553Z,13.50
2019-05-23T22:14:24.658Z,13.50
2019-05-23T22:16:53.833Z,13.50
2019-05-23T22:19:23.993Z,13.40
2019-05-23T22:21:53.169Z,13.40
2019-05-23T22:24:22.401Z,13.40
2019-05-23T22:26:51.579Z,13.40
2019-05-23T22:29:21.277Z,13.40
2019-05-23T22:31:50.452Z,13.40
2019-05-23T22:34:27.634Z,13.30
2019-05-23T22:36:57.108Z,13.30
2019-05-23T22:39:29.465Z,13.30
2019-05-23T22:41:58.606Z,13.30
2019-05-23T22:44:28.073Z,13.20
2019-05-23T22:46:57.202Z,13.30
2019-05-23T22:49:26.370Z,13.30
2019-05-23T22:51:55.545Z,13.20
2019-05-23T22:54:24.710Z,13.20
2019-05-23T22:56:53.865Z,13.20
2019-05-23T22:59:23.033Z,13.00
2019-05-23T23:01:52.137Z,13.00
2019-05-23T23:04:21.230Z,13.10
2019-05-23T23:06:50.402Z,13.00
2019-05-23T23:09:20.865Z,12.90
2019-05-23T23:11:50.037Z,12.90
2019-05-23T23:14:19.212Z,12.80
2019-05-23T23:16:49.297Z,12.80
2019-05-23T23:19:18.393Z,12.70
2019-05-23T23:21:47.592Z,12.70
2019-05-23T23:24:16.928Z,12.70
2019-05-23T23:26:46.077Z,12.60
2019-05-23T23:29:15.245Z,12.60
2019-05-23T23:31:44.419Z,12.60
2019-05-23T23:34:13.577Z,12.60
2019-05-23T23:36:42.688Z,12.60
2019-05-23T23:39:11.859Z,12.60
2019-05-23T23:41:41.029Z,12.50
2019-05-23T23:44:11.641Z,12.50
2019-05-23T23:46:58.530Z,12.50
2019-05-23T23:49:45.453Z,12.50
2019-05-23T23:52:32.119Z,12.50
2019-05-23T23:55:19.153Z,12.50
2019-05-23T23:57:59.364Z,12.40
